sensor_id;sensor_type;location;lat;lon;timestamp;temperature;humidity
51922;DHT22;37948;53.260;6.394;2023-03-23T00:01:19;9.70;99.90
51922;DHT22;37948;53.260;6.394;2023-03-23T00:03:47;9.60;99.90
51922;DHT22;37948;53.260;6.394;2023-03-23T00:06:13;9.60;99.90
51922;DHT22;37948;53.260;6.394;2023-03-23T00:08:44;9.60;99.90
51922;DHT22;37948;53.260;6.394;2023-03-23T00:11:16;9.60;99.90
51922;DHT22;37948;53.260;6.394;2023-03-23T00:13:42;9.70;99.90
51922;DHT22;37948;53.260;6.394;2023-03-23T00:16:09;9.60;99.90
51922;DHT22;37948;53.260;6.394;2023-03-23T00:18:55;9.70;99.90
51922;DHT22;37948;53.260;6.394;2023-03-23T00:21:26;9.70;99.90
51922;DHT22;37948;53.260;6.394;2023-03-23T00:24:07;9.70;99.90
51922;DHT22;37948;53.260;6.394;2023-03-23T00:26:35;9.80;99.90
51922;DHT22;37948;53.260;6.394;2023-03-23T00:29:03;9.80;99.90
51922;DHT22;37948;53.260;6.394;2023-03-23T00:31:30;9.80;99.90
51922;DHT22;37948;53.260;6.394;2023-03-23T00:34:03;9.80;99.90
51922;DHT22;37948;53.260;6.394;2023-03-23T00:36:31;9.80;99.90
51922;DHT22;37948;53.260;6.394;2023-03-23T00:38:57;9.80;99.90
51922;DHT22;37948;53.260;6.394;2023-03-23T00:41:27;9.80;99.90
51922;DHT22;37948;53.260;6.394;2023-03-23T00:43:58;9.80;99.90
51922;DHT22;37948;53.260;6.394;2023-03-23T00:46:26;9.80;99.90
51922;DHT22;37948;53.260;6.394;2023-03-23T00:48:53;9.90;99.90
51922;DHT22;37948;53.260;6.394;2023-03-23T00:51:19;9.90;99.90
51922;DHT22;37948;53.260;6.394;2023-03-23T00:53:46;9.90;99.90
51922;DHT22;37948;53.260;6.394;2023-03-23T00:56:12;9.90;99.90
51922;DHT22;37948;53.260;6.394;2023-03-23T00:58:38;9.90;99.90
51922;DHT22;37948;53.260;6.394;2023-03-23T01:01:04;9.90;99.90
51922;DHT22;37948;53.260;6.394;2023-03-23T01:03:30;9.90;99.90
51922;DHT22;37948;53.260;6.394;2023-03-23T01:05:56;9.90;99.90
51922;DHT22;37948;53.260;6.394;2023-03-23T01:08:23;10.00;99.90
51922;DHT22;37948;53.260;6.394;2023-03-23T01:10:49;10.00;99.90
51922;DHT22;37948;53.260;6.394;2023-03-23T01:13:16;10.00;99.90
51922;DHT22;37948;53.260;6.394;2023-03-23T01:15:42;10.00;99.90
51922;DHT22;37948;53.260;6.394;2023-03-23T01:18:09;10.00;99.90
51922;DHT22;37948;53.260;6.394;2023-03-23T01:20:36;9.90;99.90
51922;DHT22;37948;53.260;6.394;2023-03-23T01:23:02;9.90;99.90
51922;DHT22;37948;53.260;6.394;2023-03-23T01:25:29;9.90;99.90
51922;DHT22;37948;53.260;6.394;2023-03-23T01:27:57;9.90;99.90
51922;DHT22;37948;53.260;6.394;2023-03-23T01:30:24;9.80;99.90
51922;DHT22;37948;53.260;6.394;2023-03-23T01:32:51;9.80;99.90
51922;DHT22;37948;53.260;6.394;2023-03-23T01:35:18;9.80;99.90
51922;DHT22;37948;53.260;6.394;2023-03-23T01:37:44;9.80;99.90
51922;DHT22;37948;53.260;6.394;2023-03-23T01:40:13;9.70;99.90
51922;DHT22;37948;53.260;6.394;2023-03-23T01:42:39;9.70;99.90
51922;DHT22;37948;53.260;6.394;2023-03-23T01:50:24;9.80;99.90
51922;DHT22;37948;53.260;6.394;2023-03-23T01:52:55;9.80;99.90
51922;DHT22;37948;53.260;6.394;2023-03-23T01:55:24;9.80;99.90
51922;DHT22;37948;53.260;6.394;2023-03-23T01:57:52;9.80;99.90
51922;DHT22;37948;53.260;6.394;2023-03-23T02:00:19;9.80;99.90
51922;DHT22;37948;53.260;6.394;2023-03-23T02:02:47;9.90;99.90
51922;DHT22;37948;53.260;6.394;2023-03-23T02:05:19;9.90;99.90
51922;DHT22;37948;53.260;6.394;2023-03-23T02:07:47;9.90;99.90
51922;DHT22;37948;53.260;6.394;2023-03-23T02:10:14;10.00;99.90
51922;DHT22;37948;53.260;6.394;2023-03-23T02:12:39;10.00;99.90
51922;DHT22;37948;53.260;6.394;2023-03-23T02:15:05;10.00;99.90
51922;DHT22;37948;53.260;6.394;2023-03-23T02:17:46;10.10;99.90
51922;DHT22;37948;53.260;6.394;2023-03-23T02:20:28;10.10;99.90
51922;DHT22;37948;53.260;6.394;2023-03-23T02:28:53;10.20;99.90
51922;DHT22;37948;53.260;6.394;2023-03-23T02:34:27;10.30;99.90
51922;DHT22;37948;53.260;6.394;2023-03-23T02:37:00;10.30;99.90
51922;DHT22;37948;53.260;6.394;2023-03-23T02:39:45;10.30;99.90
51922;DHT22;37948;53.260;6.394;2023-03-23T02:42:16;10.40;99.90
51922;DHT22;37948;53.260;6.394;2023-03-23T02:44:44;10.40;99.90
51922;DHT22;37948;53.260;6.394;2023-03-23T02:47:17;10.40;99.90
51922;DHT22;37948;53.260;6.394;2023-03-23T02:49:47;10.40;99.90
51922;DHT22;37948;53.260;6.394;2023-03-23T02:52:18;10.40;99.90
51922;DHT22;37948;53.260;6.394;2023-03-23T02:54:46;10.50;99.90
51922;DHT22;37948;53.260;6.394;2023-03-23T02:57:13;10.50;99.90
51922;DHT22;37948;53.260;6.394;2023-03-23T02:59:39;10.50;99.90
51922;DHT22;37948;53.260;6.394;2023-03-23T03:04:39;10.50;99.90
51922;DHT22;37948;53.260;6.394;2023-03-23T03:07:24;10.50;99.90
51922;DHT22;37948;53.260;6.394;2023-03-23T03:10:01;10.50;99.90
51922;DHT22;37948;53.260;6.394;2023-03-23T03:12:55;10.50;99.90
51922;DHT22;37948;53.260;6.394;2023-03-23T03:15:37;10.50;99.90
51922;DHT22;37948;53.260;6.394;2023-03-23T03:18:14;10.40;99.90
51922;DHT22;37948;53.260;6.394;2023-03-23T03:20:48;10.50;99.90
51922;DHT22;37948;53.260;6.394;2023-03-23T03:23:16;10.50;99.90
51922;DHT22;37948;53.260;6.394;2023-03-23T03:25:43;10.50;99.90
51922;DHT22;37948;53.260;6.394;2023-03-23T03:28:16;10.50;99.90
51922;DHT22;37948;53.260;6.394;2023-03-23T03:30:44;10.40;99.90
51922;DHT22;37948;53.260;6.394;2023-03-23T03:33:10;10.50;99.90
51922;DHT22;37948;53.260;6.394;2023-03-23T03:35:39;10.50;99.90
51922;DHT22;37948;53.260;6.394;2023-03-23T03:38:08;10.50;99.90
51922;DHT22;37948;53.260;6.394;2023-03-23T03:40:34;10.50;99.90
51922;DHT22;37948;53.260;6.394;2023-03-23T03:43:00;10.40;99.90
51922;DHT22;37948;53.260;6.394;2023-03-23T03:45:26;10.50;99.90
51922;DHT22;37948;53.260;6.394;2023-03-23T03:47:52;10.50;99.90
51922;DHT22;37948;53.260;6.394;2023-03-23T03:50:17;10.50;99.90
51922;DHT22;37948;53.260;6.394;2023-03-23T03:52:43;10.50;99.90
51922;DHT22;37948;53.260;6.394;2023-03-23T03:55:10;10.50;99.90
51922;DHT22;37948;53.260;6.394;2023-03-23T03:57:36;10.50;99.90
51922;DHT22;37948;53.260;6.394;2023-03-23T04:00:03;10.40;99.90
51922;DHT22;37948;53.260;6.394;2023-03-23T04:02:39;10.40;99.90
51922;DHT22;37948;53.260;6.394;2023-03-23T04:05:06;10.40;99.90
51922;DHT22;37948;53.260;6.394;2023-03-23T04:07:32;10.40;99.90
51922;DHT22;37948;53.260;6.394;2023-03-23T04:09:57;10.40;99.90
51922;DHT22;37948;53.260;6.394;2023-03-23T04:12:23;10.40;99.90
51922;DHT22;37948;53.260;6.394;2023-03-23T04:14:48;10.40;99.90
51922;DHT22;37948;53.260;6.394;2023-03-23T04:17:14;10.40;99.90
51922;DHT22;37948;53.260;6.394;2023-03-23T04:19:40;10.40;99.90
51922;DHT22;37948;53.260;6.394;2023-03-23T04:22:05;10.40;99.90
51922;DHT22;37948;53.260;6.394;2023-03-23T04:24:32;10.40;99.90
51922;DHT22;37948;53.260;6.394;2023-03-23T04:26:59;10.40;99.90
51922;DHT22;37948;53.260;6.394;2023-03-23T04:29:28;10.50;99.90
51922;DHT22;37948;53.260;6.394;2023-03-23T04:31:53;10.40;99.90
51922;DHT22;37948;53.260;6.394;2023-03-23T04:34:22;10.40;99.90
51922;DHT22;37948;53.260;6.394;2023-03-23T04:36:47;10.40;99.90
51922;DHT22;37948;53.260;6.394;2023-03-23T04:39:13;10.40;99.90
51922;DHT22;37948;53.260;6.394;2023-03-23T04:41:41;10.40;99.90
51922;DHT22;37948;53.260;6.394;2023-03-23T04:44:07;10.30;99.90
51922;DHT22;37948;53.260;6.394;2023-03-23T04:46:33;10.30;99.90
51922;DHT22;37948;53.260;6.394;2023-03-23T04:48:59;10.30;99.90
51922;DHT22;37948;53.260;6.394;2023-03-23T04:51:26;10.30;99.90
51922;DHT22;37948;53.260;6.394;2023-03-23T04:53:52;10.20;99.90
51922;DHT22;37948;53.260;6.394;2023-03-23T04:56:18;10.20;99.90
51922;DHT22;37948;53.260;6.394;2023-03-23T04:58:45;10.20;99.90
51922;DHT22;37948;53.260;6.394;2023-03-23T05:01:12;10.20;99.90
51922;DHT22;37948;53.260;6.394;2023-03-23T05:03:41;10.20;99.90
51922;DHT22;37948;53.260;6.394;2023-03-23T05:06:07;10.30;99.90
51922;DHT22;37948;53.260;6.394;2023-03-23T05:08:33;10.20;99.90
51922;DHT22;37948;53.260;6.394;2023-03-23T05:11:00;10.20;99.90
51922;DHT22;37948;53.260;6.394;2023-03-23T05:13:27;10.20;99.90
51922;DHT22;37948;53.260;6.394;2023-03-23T05:15:54;10.20;99.90
51922;DHT22;37948;53.260;6.394;2023-03-23T05:18:20;10.20;99.90
51922;DHT22;37948;53.260;6.394;2023-03-23T05:20:46;10.20;99.90
51922;DHT22;37948;53.260;6.394;2023-03-23T05:23:12;10.20;99.90
51922;DHT22;37948;53.260;6.394;2023-03-23T05:25:38;10.20;99.90
51922;DHT22;37948;53.260;6.394;2023-03-23T05:28:08;10.20;99.90
51922;DHT22;37948;53.260;6.394;2023-03-23T05:30:34;10.20;99.90
51922;DHT22;37948;53.260;6.394;2023-03-23T05:33:00;10.20;99.90
51922;DHT22;37948;53.260;6.394;2023-03-23T05:35:25;10.20;99.90
51922;DHT22;37948;53.260;6.394;2023-03-23T05:37:52;10.30;99.90
51922;DHT22;37948;53.260;6.394;2023-03-23T05:40:19;10.30;99.90
51922;DHT22;37948;53.260;6.394;2023-03-23T05:42:46;10.30;99.90
51922;DHT22;37948;53.260;6.394;2023-03-23T05:45:13;10.20;99.90
51922;DHT22;37948;53.260;6.394;2023-03-23T05:47:40;10.20;99.90
51922;DHT22;37948;53.260;6.394;2023-03-23T05:50:07;10.20;99.90
51922;DHT22;37948;53.260;6.394;2023-03-23T05:52:34;10.20;99.90
51922;DHT22;37948;53.260;6.394;2023-03-23T05:55:01;10.20;99.90
51922;DHT22;37948;53.260;6.394;2023-03-23T05:57:27;10.20;99.90
51922;DHT22;37948;53.260;6.394;2023-03-23T05:59:53;10.20;99.90
51922;DHT22;37948;53.260;6.394;2023-03-23T06:02:19;10.20;99.90
51922;DHT22;37948;53.260;6.394;2023-03-23T06:04:44;10.10;99.90
51922;DHT22;37948;53.260;6.394;2023-03-23T06:07:10;10.10;99.90
51922;DHT22;37948;53.260;6.394;2023-03-23T06:09:39;10.20;99.90
51922;DHT22;37948;53.260;6.394;2023-03-23T06:12:05;10.20;99.90
51922;DHT22;37948;53.260;6.394;2023-03-23T06:14:31;10.20;99.90
51922;DHT22;37948;53.260;6.394;2023-03-23T06:16:57;10.20;99.90
51922;DHT22;37948;53.260;6.394;2023-03-23T06:19:23;10.20;99.90
51922;DHT22;37948;53.260;6.394;2023-03-23T06:21:48;10.20;99.90
51922;DHT22;37948;53.260;6.394;2023-03-23T06:24:14;10.20;99.90
51922;DHT22;37948;53.260;6.394;2023-03-23T06:26:40;10.10;99.90
51922;DHT22;37948;53.260;6.394;2023-03-23T06:29:10;10.10;99.90
51922;DHT22;37948;53.260;6.394;2023-03-23T06:31:40;10.00;99.90
51922;DHT22;37948;53.260;6.394;2023-03-23T06:34:07;10.00;99.90
51922;DHT22;37948;53.260;6.394;2023-03-23T06:36:34;9.90;99.90
51922;DHT22;37948;53.260;6.394;2023-03-23T06:39:00;9.90;99.90
51922;DHT22;37948;53.260;6.394;2023-03-23T06:41:26;9.90;99.90
51922;DHT22;37948;53.260;6.394;2023-03-23T06:43:52;9.80;99.90
51922;DHT22;37948;53.260;6.394;2023-03-23T06:46:18;9.80;99.90
51922;DHT22;37948;53.260;6.394;2023-03-23T06:48:43;9.70;99.90
51922;DHT22;37948;53.260;6.394;2023-03-23T06:51:09;9.70;99.90
51922;DHT22;37948;53.260;6.394;2023-03-23T06:53:35;9.70;99.90
51922;DHT22;37948;53.260;6.394;2023-03-23T06:56:00;9.70;99.90
51922;DHT22;37948;53.260;6.394;2023-03-23T06:58:26;9.70;99.90
51922;DHT22;37948;53.260;6.394;2023-03-23T07:00:56;9.70;99.90
51922;DHT22;37948;53.260;6.394;2023-03-23T07:03:24;9.70;99.90
51922;DHT22;37948;53.260;6.394;2023-03-23T07:05:54;9.70;99.90
51922;DHT22;37948;53.260;6.394;2023-03-23T07:08:20;9.70;99.90
51922;DHT22;37948;53.260;6.394;2023-03-23T07:10:47;9.70;99.90
51922;DHT22;37948;53.260;6.394;2023-03-23T07:13:12;9.70;99.90
51922;DHT22;37948;53.260;6.394;2023-03-23T07:15:39;9.70;99.90
51922;DHT22;37948;53.260;6.394;2023-03-23T07:18:05;9.80;99.90
51922;DHT22;37948;53.260;6.394;2023-03-23T07:20:31;9.80;99.90
51922;DHT22;37948;53.260;6.394;2023-03-23T07:22:56;9.80;99.90
51922;DHT22;37948;53.260;6.394;2023-03-23T07:25:22;9.90;99.90
51922;DHT22;37948;53.260;6.394;2023-03-23T07:27:48;9.90;99.90
51922;DHT22;37948;53.260;6.394;2023-03-23T07:30:14;10.00;99.90
51922;DHT22;37948;53.260;6.394;2023-03-23T07:32:40;10.00;99.90
51922;DHT22;37948;53.260;6.394;2023-03-23T07:35:07;10.20;99.90
51922;DHT22;37948;53.260;6.394;2023-03-23T07:37:33;10.20;99.90
51922;DHT22;37948;53.260;6.394;2023-03-23T07:39:59;10.30;99.90
51922;DHT22;37948;53.260;6.394;2023-03-23T07:42:25;10.30;99.90
51922;DHT22;37948;53.260;6.394;2023-03-23T07:44:50;10.40;99.90
51922;DHT22;37948;53.260;6.394;2023-03-23T07:47:16;10.40;99.90
51922;DHT22;37948;53.260;6.394;2023-03-23T07:49:43;10.50;99.90
51922;DHT22;37948;53.260;6.394;2023-03-23T07:52:09;10.50;99.90
51922;DHT22;37948;53.260;6.394;2023-03-23T07:54:36;10.50;99.90
51922;DHT22;37948;53.260;6.394;2023-03-23T07:57:02;10.50;99.90
51922;DHT22;37948;53.260;6.394;2023-03-23T07:59:28;10.50;99.90
51922;DHT22;37948;53.260;6.394;2023-03-23T08:01:53;10.50;99.90
51922;DHT22;37948;53.260;6.394;2023-03-23T08:04:19;10.60;99.90
51922;DHT22;37948;53.260;6.394;2023-03-23T08:06:45;10.60;99.90
51922;DHT22;37948;53.260;6.394;2023-03-23T08:09:10;10.60;99.90
51922;DHT22;37948;53.260;6.394;2023-03-23T08:11:37;10.60;99.90
51922;DHT22;37948;53.260;6.394;2023-03-23T08:14:04;10.60;99.90
51922;DHT22;37948;53.260;6.394;2023-03-23T08:16:31;10.70;99.90
51922;DHT22;37948;53.260;6.394;2023-03-23T08:18:57;10.70;99.90
51922;DHT22;37948;53.260;6.394;2023-03-23T08:21:23;10.70;99.90
51922;DHT22;37948;53.260;6.394;2023-03-23T08:23:49;10.70;99.90
51922;DHT22;37948;53.260;6.394;2023-03-23T08:26:15;10.80;99.90
51922;DHT22;37948;53.260;6.394;2023-03-23T08:28:42;10.80;99.90
51922;DHT22;37948;53.260;6.394;2023-03-23T08:31:13;10.80;99.90
51922;DHT22;37948;53.260;6.394;2023-03-23T08:33:40;10.70;99.90
51922;DHT22;37948;53.260;6.394;2023-03-23T08:36:07;10.80;99.90
51922;DHT22;37948;53.260;6.394;2023-03-23T08:38:34;10.80;99.90
51922;DHT22;37948;53.260;6.394;2023-03-23T08:41:02;10.90;99.90
51922;DHT22;37948;53.260;6.394;2023-03-23T08:43:29;10.90;99.90
51922;DHT22;37948;53.260;6.394;2023-03-23T08:45:55;10.90;99.90
51922;DHT22;37948;53.260;6.394;2023-03-23T08:48:21;10.90;99.90
51922;DHT22;37948;53.260;6.394;2023-03-23T08:50:49;11.00;99.90
51922;DHT22;37948;53.260;6.394;2023-03-23T08:53:15;11.10;99.90
51922;DHT22;37948;53.260;6.394;2023-03-23T08:55:41;11.20;99.90
51922;DHT22;37948;53.260;6.394;2023-03-23T08:58:08;11.20;99.90
51922;DHT22;37948;53.260;6.394;2023-03-23T09:00:34;11.20;99.90
51922;DHT22;37948;53.260;6.394;2023-03-23T09:03:00;11.30;99.90
51922;DHT22;37948;53.260;6.394;2023-03-23T09:05:28;11.40;99.90
51922;DHT22;37948;53.260;6.394;2023-03-23T09:07:56;11.50;99.90
51922;DHT22;37948;53.260;6.394;2023-03-23T09:10:25;11.50;99.90
51922;DHT22;37948;53.260;6.394;2023-03-23T09:12:52;11.60;99.90
51922;DHT22;37948;53.260;6.394;2023-03-23T09:15:18;11.50;99.90
51922;DHT22;37948;53.260;6.394;2023-03-23T09:17:46;11.60;99.90
51922;DHT22;37948;53.260;6.394;2023-03-23T09:20:13;11.60;99.90
51922;DHT22;37948;53.260;6.394;2023-03-23T09:22:40;11.60;99.90
51922;DHT22;37948;53.260;6.394;2023-03-23T09:25:12;11.60;99.90
51922;DHT22;37948;53.260;6.394;2023-03-23T09:27:39;11.50;99.90
51922;DHT22;37948;53.260;6.394;2023-03-23T09:30:14;11.50;99.90
51922;DHT22;37948;53.260;6.394;2023-03-23T09:32:40;11.50;99.90
51922;DHT22;37948;53.260;6.394;2023-03-23T09:35:09;11.50;99.90
51922;DHT22;37948;53.260;6.394;2023-03-23T09:37:38;11.50;99.90
51922;DHT22;37948;53.260;6.394;2023-03-23T09:40:06;11.50;99.90
51922;DHT22;37948;53.260;6.394;2023-03-23T09:50:52;12.00;99.90
51922;DHT22;37948;53.260;6.394;2023-03-23T09:53:22;12.00;99.90
51922;DHT22;37948;53.260;6.394;2023-03-23T09:55:49;12.10;99.90
51922;DHT22;37948;53.260;6.394;2023-03-23T09:58:28;12.10;99.90
51922;DHT22;37948;53.260;6.394;2023-03-23T10:01:04;12.20;99.90
51922;DHT22;37948;53.260;6.394;2023-03-23T10:03:39;12.10;99.90
51922;DHT22;37948;53.260;6.394;2023-03-23T10:06:05;11.90;99.90
51922;DHT22;37948;53.260;6.394;2023-03-23T10:08:33;12.00;99.90
51922;DHT22;37948;53.260;6.394;2023-03-23T10:16:28;12.10;99.90
51922;DHT22;37948;53.260;6.394;2023-03-23T10:19:20;12.10;99.90
51922;DHT22;37948;53.260;6.394;2023-03-23T10:21:51;12.30;99.90
51922;DHT22;37948;53.260;6.394;2023-03-23T10:24:21;12.40;99.90
51922;DHT22;37948;53.260;6.394;2023-03-23T10:29:36;12.70;99.90
51922;DHT22;37948;53.260;6.394;2023-03-23T10:32:10;12.80;99.90
51922;DHT22;37948;53.260;6.394;2023-03-23T10:39:55;13.10;99.90
51922;DHT22;37948;53.260;6.394;2023-03-23T10:42:34;13.10;99.90
51922;DHT22;37948;53.260;6.394;2023-03-23T10:47:44;12.80;99.90
51922;DHT22;37948;53.260;6.394;2023-03-23T10:50:15;12.70;99.90
51922;DHT22;37948;53.260;6.394;2023-03-23T10:52:43;12.70;99.90
51922;DHT22;37948;53.260;6.394;2023-03-23T10:55:16;12.70;99.90
51922;DHT22;37948;53.260;6.394;2023-03-23T10:57:45;12.60;99.90
51922;DHT22;37948;53.260;6.394;2023-03-23T11:02:46;12.60;99.90
51922;DHT22;37948;53.260;6.394;2023-03-23T11:05:23;12.70;99.90
51922;DHT22;37948;53.260;6.394;2023-03-23T11:07:56;12.90;99.90
51922;DHT22;37948;53.260;6.394;2023-03-23T11:10:25;12.90;99.90
51922;DHT22;37948;53.260;6.394;2023-03-23T11:12:53;13.00;99.90
51922;DHT22;37948;53.260;6.394;2023-03-23T11:15:31;13.10;99.90
51922;DHT22;37948;53.260;6.394;2023-03-23T11:18:12;13.20;99.90
51922;DHT22;37948;53.260;6.394;2023-03-23T11:20:41;13.10;99.90
51922;DHT22;37948;53.260;6.394;2023-03-23T11:23:24;13.10;99.90
51922;DHT22;37948;53.260;6.394;2023-03-23T11:26:13;13.00;99.90
51922;DHT22;37948;53.260;6.394;2023-03-23T11:31:41;13.20;99.90
51922;DHT22;37948;53.260;6.394;2023-03-23T11:34:15;13.30;99.90
51922;DHT22;37948;53.260;6.394;2023-03-23T11:36:47;13.20;99.90
51922;DHT22;37948;53.260;6.394;2023-03-23T11:39:28;13.10;99.90
51922;DHT22;37948;53.260;6.394;2023-03-23T11:41:57;13.00;99.90
51922;DHT22;37948;53.260;6.394;2023-03-23T11:44:24;12.90;99.90
51922;DHT22;37948;53.260;6.394;2023-03-23T11:47:32;12.70;99.90
51922;DHT22;37948;53.260;6.394;2023-03-23T11:58:00;12.80;99.90
51922;DHT22;37948;53.260;6.394;2023-03-23T12:00:27;12.70;99.90
51922;DHT22;37948;53.260;6.394;2023-03-23T12:03:01;12.70;99.90
51922;DHT22;37948;53.260;6.394;2023-03-23T12:08:48;12.80;99.90
51922;DHT22;37948;53.260;6.394;2023-03-23T12:14:03;12.90;99.90
51922;DHT22;37948;53.260;6.394;2023-03-23T12:30:19;12.80;99.90
51922;DHT22;37948;53.260;6.394;2023-03-23T12:32:56;12.80;99.90
51922;DHT22;37948;53.260;6.394;2023-03-23T12:36:15;12.80;99.90
51922;DHT22;37948;53.260;6.394;2023-03-23T12:43:59;13.20;99.90
51922;DHT22;37948;53.260;6.394;2023-03-23T12:54:21;13.50;99.90
51922;DHT22;37948;53.260;6.394;2023-03-23T12:59:53;13.40;99.90
51922;DHT22;37948;53.260;6.394;2023-03-23T13:05:06;13.30;99.90
51922;DHT22;37948;53.260;6.394;2023-03-23T13:07:43;13.30;99.90
51922;DHT22;37948;53.260;6.394;2023-03-23T13:12:46;13.10;99.90
51922;DHT22;37948;53.260;6.394;2023-03-23T13:15:51;13.00;99.90
51922;DHT22;37948;53.260;6.394;2023-03-23T13:21:06;12.90;99.90
51922;DHT22;37948;53.260;6.394;2023-03-23T13:23:39;12.90;99.90
51922;DHT22;37948;53.260;6.394;2023-03-23T13:28:59;13.10;99.90
51922;DHT22;37948;53.260;6.394;2023-03-23T13:31:35;13.10;99.90
51922;DHT22;37948;53.260;6.394;2023-03-23T13:34:22;13.10;99.90
51922;DHT22;37948;53.260;6.394;2023-03-23T13:37:10;13.10;99.90
51922;DHT22;37948;53.260;6.394;2023-03-23T13:39:54;13.10;99.90
51922;DHT22;37948;53.260;6.394;2023-03-23T13:42:31;13.30;99.90
51922;DHT22;37948;53.260;6.394;2023-03-23T13:45:23;13.40;99.90
51922;DHT22;37948;53.260;6.394;2023-03-23T13:48:01;13.60;99.90
51922;DHT22;37948;53.260;6.394;2023-03-23T13:50:29;13.70;99.90
51922;DHT22;37948;53.260;6.394;2023-03-23T13:53:13;13.80;99.90
51922;DHT22;37948;53.260;6.394;2023-03-23T13:55:48;13.90;99.90
51922;DHT22;37948;53.260;6.394;2023-03-23T13:58:25;13.90;99.90
51922;DHT22;37948;53.260;6.394;2023-03-23T14:01:13;13.80;99.90
51922;DHT22;37948;53.260;6.394;2023-03-23T14:03:43;13.90;99.90
51922;DHT22;37948;53.260;6.394;2023-03-23T14:06:17;13.90;99.90
51922;DHT22;37948;53.260;6.394;2023-03-23T14:08:47;13.90;99.90
51922;DHT22;37948;53.260;6.394;2023-03-23T14:11:23;13.80;99.90
51922;DHT22;37948;53.260;6.394;2023-03-23T14:14:03;13.70;99.90
51922;DHT22;37948;53.260;6.394;2023-03-23T14:19:03;13.60;99.90
51922;DHT22;37948;53.260;6.394;2023-03-23T14:21:35;13.70;99.90
51922;DHT22;37948;53.260;6.394;2023-03-23T14:24:14;13.70;99.90
51922;DHT22;37948;53.260;6.394;2023-03-23T14:26:41;13.70;99.90
51922;DHT22;37948;53.260;6.394;2023-03-23T14:29:10;13.80;99.90
51922;DHT22;37948;53.260;6.394;2023-03-23T14:31:37;13.70;99.90
51922;DHT22;37948;53.260;6.394;2023-03-23T14:34:16;13.70;99.90
51922;DHT22;37948;53.260;6.394;2023-03-23T14:36:43;13.70;99.90
51922;DHT22;37948;53.260;6.394;2023-03-23T14:39:35;13.70;99.90
51922;DHT22;37948;53.260;6.394;2023-03-23T14:42:13;13.70;99.90
51922;DHT22;37948;53.260;6.394;2023-03-23T14:44:48;13.80;99.90
51922;DHT22;37948;53.260;6.394;2023-03-23T14:47:30;13.80;99.90
51922;DHT22;37948;53.260;6.394;2023-03-23T14:49:58;13.80;99.90
51922;DHT22;37948;53.260;6.394;2023-03-23T14:52:27;13.90;99.90
51922;DHT22;37948;53.260;6.394;2023-03-23T14:54:53;13.80;99.90
51922;DHT22;37948;53.260;6.394;2023-03-23T14:57:27;13.70;99.90
51922;DHT22;37948;53.260;6.394;2023-03-23T14:59:54;13.70;99.90
51922;DHT22;37948;53.260;6.394;2023-03-23T15:02:32;13.60;99.90
51922;DHT22;37948;53.260;6.394;2023-03-23T15:07:34;13.60;99.90
51922;DHT22;37948;53.260;6.394;2023-03-23T15:10:00;13.60;99.90
51922;DHT22;37948;53.260;6.394;2023-03-23T15:12:29;13.60;99.90
51922;DHT22;37948;53.260;6.394;2023-03-23T15:14:58;13.60;99.90
51922;DHT22;37948;53.260;6.394;2023-03-23T15:17:28;13.70;99.90
51922;DHT22;37948;53.260;6.394;2023-03-23T15:19:55;13.70;99.90
51922;DHT22;37948;53.260;6.394;2023-03-23T15:22:27;13.80;99.90
51922;DHT22;37948;53.260;6.394;2023-03-23T15:27:34;13.70;99.90
51922;DHT22;37948;53.260;6.394;2023-03-23T15:32:51;13.70;99.90
51922;DHT22;37948;53.260;6.394;2023-03-23T15:35:21;13.70;99.90
51922;DHT22;37948;53.260;6.394;2023-03-23T15:37:49;13.60;99.90
51922;DHT22;37948;53.260;6.394;2023-03-23T15:40:22;13.60;99.90
51922;DHT22;37948;53.260;6.394;2023-03-23T15:42:49;13.60;99.90
51922;DHT22;37948;53.260;6.394;2023-03-23T15:45:27;13.60;99.90
51922;DHT22;37948;53.260;6.394;2023-03-23T15:47:58;13.50;99.90
51922;DHT22;37948;53.260;6.394;2023-03-23T15:52:58;13.50;99.90
51922;DHT22;37948;53.260;6.394;2023-03-23T15:55:25;13.40;99.90
51922;DHT22;37948;53.260;6.394;2023-03-23T15:57:53;13.30;99.90
51922;DHT22;37948;53.260;6.394;2023-03-23T16:00:20;13.30;99.90
51922;DHT22;37948;53.260;6.394;2023-03-23T16:02:49;13.20;99.90
51922;DHT22;37948;53.260;6.394;2023-03-23T16:05:17;13.20;99.90
51922;DHT22;37948;53.260;6.394;2023-03-23T16:07:42;13.10;99.90
51922;DHT22;37948;53.260;6.394;2023-03-23T16:10:18;13.10;99.90
51922;DHT22;37948;53.260;6.394;2023-03-23T16:12:45;13.10;99.90
51922;DHT22;37948;53.260;6.394;2023-03-23T16:15:12;13.10;99.90
51922;DHT22;37948;53.260;6.394;2023-03-23T16:17:38;13.10;99.90
51922;DHT22;37948;53.260;6.394;2023-03-23T16:20:30;13.00;99.90
51922;DHT22;37948;53.260;6.394;2023-03-23T16:22:57;12.90;99.90
51922;DHT22;37948;53.260;6.394;2023-03-23T16:25:23;12.90;99.90
51922;DHT22;37948;53.260;6.394;2023-03-23T16:27:49;12.80;99.90
51922;DHT22;37948;53.260;6.394;2023-03-23T16:30:16;12.80;99.90
51922;DHT22;37948;53.260;6.394;2023-03-23T16:32:42;12.80;99.90
51922;DHT22;37948;53.260;6.394;2023-03-23T16:35:09;12.80;99.90
51922;DHT22;37948;53.260;6.394;2023-03-23T16:37:36;12.80;99.90
51922;DHT22;37948;53.260;6.394;2023-03-23T16:40:03;12.80;99.90
51922;DHT22;37948;53.260;6.394;2023-03-23T16:42:29;12.80;99.90
51922;DHT22;37948;53.260;6.394;2023-03-23T16:44:54;12.70;99.90
51922;DHT22;37948;53.260;6.394;2023-03-23T16:47:21;12.70;99.90
51922;DHT22;37948;53.260;6.394;2023-03-23T16:49:52;12.70;99.90
51922;DHT22;37948;53.260;6.394;2023-03-23T16:52:18;12.60;99.90
51922;DHT22;37948;53.260;6.394;2023-03-23T16:54:44;12.60;99.90
51922;DHT22;37948;53.260;6.394;2023-03-23T16:57:10;12.60;99.90
51922;DHT22;37948;53.260;6.394;2023-03-23T16:59:42;12.60;99.90
51922;DHT22;37948;53.260;6.394;2023-03-23T17:02:11;12.50;99.90
51922;DHT22;37948;53.260;6.394;2023-03-23T17:04:42;12.40;99.90
51922;DHT22;37948;53.260;6.394;2023-03-23T17:07:09;12.40;99.90
51922;DHT22;37948;53.260;6.394;2023-03-23T17:09:34;12.40;99.90
51922;DHT22;37948;53.260;6.394;2023-03-23T17:12:00;12.30;99.90
51922;DHT22;37948;53.260;6.394;2023-03-23T17:14:26;12.30;99.90
51922;DHT22;37948;53.260;6.394;2023-03-23T17:16:52;12.30;99.90
51922;DHT22;37948;53.260;6.394;2023-03-23T17:19:17;12.30;99.90
51922;DHT22;37948;53.260;6.394;2023-03-23T17:21:43;12.20;99.90
51922;DHT22;37948;53.260;6.394;2023-03-23T17:24:09;12.20;99.90
51922;DHT22;37948;53.260;6.394;2023-03-23T17:26:34;12.30;99.90
51922;DHT22;37948;53.260;6.394;2023-03-23T17:29:01;12.20;99.90
51922;DHT22;37948;53.260;6.394;2023-03-23T17:31:27;12.20;99.90
51922;DHT22;37948;53.260;6.394;2023-03-23T17:33:53;12.10;99.90
51922;DHT22;37948;53.260;6.394;2023-03-23T17:36:19;12.10;99.90
51922;DHT22;37948;53.260;6.394;2023-03-23T17:38:45;12.00;99.90
51922;DHT22;37948;53.260;6.394;2023-03-23T17:41:10;12.10;99.90